Time;durP1;ratioP1;P1;durP2;ratioP2;P2;SDS_P1;SDS_P2;PMS_P1;PMS_P2;Temp;Humidity;BMP_temperature;BMP_pressure;BME280_temperature;BME280_humidity;BME280_pressure;Samples;Min_cycle;Max_cycle;Signal;HPM_P1;HPM_P2
2022/06/07 00:01:22;;;;;;;27.38;23.58;;;;;;;12.40;100.00;101314.63;4966584;28;20022;-68
2022/06/07 00:03:48;;;;;;;26.25;23.75;;;;;;;12.42;100.00;101307.75;4966328;28;20058;-69
2022/06/07 00:06:13;;;;;;;28.98;24.75;;;;;;;12.45;100.00;101305.25;4969171;28;20685;-70
2022/06/07 00:08:39;;;;;;;25.60;22.98;;;;;;;12.47;100.00;101307.88;4970483;28;20123;-70
2022/06/07 00:11:04;;;;;;;25.83;23.10;;;;;;;12.44;100.00;101300.91;4970329;28;20437;-70
2022/06/07 00:13:29;;;;;;;26.25;23.50;;;;;;;12.44;100.00;101298.28;4969321;28;20490;-69
2022/06/07 00:15:55;;;;;;;27.45;24.55;;;;;;;12.43;100.00;101299.13;4970475;28;20038;-69
2022/06/07 00:18:20;;;;;;;27.25;23.42;;;;;;;12.42;100.00;101299.97;4969867;28;20102;-70
2022/06/07 00:20:46;;;;;;;26.73;24.15;;;;;;;12.38;100.00;101295.50;4969972;28;20398;-69
2022/06/07 00:23:17;;;;;;;27.77;24.95;;;;;;;12.37;100.00;101288.53;4972309;28;20230;-70
2022/06/07 00:25:44;;;;;;;;;;;;;;;12.33;100.00;101292.75;4970585;28;20387;-68
2022/06/07 00:28:10;;;;;;;28.65;24.98;;;;;;;12.30;100.00;101284.88;4969830;28;19918;-70
2022/06/07 00:30:35;;;;;;;31.80;27.13;;;;;;;12.30;100.00;101279.66;4969664;28;20049;-70
2022/06/07 00:33:01;;;;;;;29.45;26.50;;;;;;;12.30;100.00;101273.59;4970181;28;20375;-70
2022/06/07 00:35:27;;;;;;;31.65;28.45;;;;;;;12.25;100.00;101271.72;4969097;28;20384;-69
2022/06/07 00:37:52;;;;;;;30.17;27.15;;;;;;;12.24;100.00;101275.16;4969918;28;20262;-70
2022/06/07 00:40:18;;;;;;;30.67;27.33;;;;;;;12.25;100.00;101270.81;4969797;28;20050;-69
2022/06/07 00:42:44;;;;;;;33.53;29.98;;;;;;;12.24;100.00;101272.56;4969960;28;20073;-69
2022/06/07 00:45:21;;;;;;;31.23;27.80;;;;;;;12.23;100.00;101260.38;4969395;28;20074;-69
2022/06/07 00:47:47;;;;;;;32.60;29.33;;;;;;;12.21;100.00;101264.66;4969926;28;20023;-68
2022/06/07 00:50:12;;;;;;;30.95;27.80;;;;;;;12.17;100.00;101273.19;4970306;28;20465;-70
2022/06/07 00:52:38;;;;;;;30.15;26.30;;;;;;;12.19;100.00;101262.84;4969318;28;20023;-70
2022/06/07 00:55:06;;;;;;;30.73;27.63;;;;;;;12.17;100.00;101262.81;4969306;28;20018;-69
2022/06/07 00:57:31;;;;;;;28.25;25.35;;;;;;;12.15;100.00;101267.06;4969004;28;20097;-69
2022/06/07 00:59:57;;;;;;;29.35;26.45;;;;;;;12.14;100.00;101254.91;4969714;28;20019;-70
2022/06/07 01:02:23;;;;;;;26.33;23.52;;;;;;;12.13;100.00;101254.03;4968242;28;20045;-69
2022/06/07 01:04:48;;;;;;;25.73;23.30;;;;;;;12.13;100.00;101254.03;4969313;28;20031;-72
2022/06/07 01:12:43;;;;;;;25.92;23.25;;;;;;;12.12;100.00;101239.25;4967750;28;20054;-69
2022/06/07 01:15:09;;;;;;;25.02;22.60;;;;;;;12.16;100.00;101253.22;4969266;28;20034;-72
2022/06/07 01:17:34;;;;;;;24.77;22.50;;;;;;;12.17;100.00;101254.13;4968234;28;20070;-71
2022/06/07 01:20:00;;;;;;;23.83;21.30;;;;;;;12.16;100.00;101250.63;4966304;28;20047;-69
2022/06/07 01:22:25;;;;;;;21.80;19.55;;;;;;;12.14;100.00;101241.94;4968922;28;20027;-68
2022/06/07 01:24:52;;;;;;;20.60;18.75;;;;;;;12.12;100.00;101235.78;4970956;28;20023;-70
2022/06/07 01:27:17;;;;;;;20.73;18.25;;;;;;;12.15;100.00;101245.38;4968222;28;20014;-70
2022/06/07 01:29:43;;;;;;;20.73;18.35;;;;;;;12.14;100.00;101239.31;4969344;28;20030;-70
2022/06/07 01:32:10;;;;;;;18.77;17.10;;;;;;;12.10;100.00;101230.56;4968726;28;20097;-71
2022/06/07 01:34:38;;;;;;;18.67;16.88;;;;;;;12.12;100.00;101234.06;4968796;28;20046;-69
2022/06/07 01:37:03;;;;;;;17.65;15.85;;;;;;;12.12;100.00;101234.06;4968745;28;20450;-68
2022/06/07 01:42:14;;;;;;;17.33;15.57;;;;;;;12.08;100.00;101233.88;4968746;28;20045;-70
2022/06/07 01:44:42;;;;;;;17.60;15.90;;;;;;;12.08;100.00;101228.69;4968677;28;20077;-70
2022/06/07 01:47:11;;;;;;;16.65;15.07;;;;;;;12.07;100.00;101232.13;4968429;28;20057;-69
2022/06/07 01:49:38;;;;;;;17.33;15.02;;;;;;;12.06;100.00;101225.16;4969091;28;20094;-69
2022/06/07 01:52:05;;;;;;;15.98;14.40;;;;;;;12.03;100.00;101227.66;4968009;28;20029;-70
2022/06/07 01:54:30;;;;;;;16.20;14.70;;;;;;;12.05;100.00;101220.81;4968966;28;20026;-69
2022/06/07 01:56:56;;;;;;;15.45;13.18;;;;;;;12.01;100.00;101225.91;4968326;28;20513;-70
2022/06/07 01:59:21;;;;;;;15.15;12.63;;;;;;;12.04;100.00;101221.63;4968410;28;20037;-70
2022/06/07 02:01:47;;;;;;;15.52;13.50;;;;;;;12.03;100.00;101220.75;4965750;28;20097;-69
2022/06/07 02:04:13;;;;;;;15.85;12.43;;;;;;;12.04;100.00;101216.44;4967968;28;20026;-70
2022/06/07 02:06:39;;;;;;;13.88;12.68;;;;;;;12.03;100.00;101214.69;4968011;28;20593;-71
2022/06/07 02:09:06;;;;;;;14.48;12.35;;;;;;;12.03;100.00;101210.38;4968320;28;20019;-70
2022/06/07 02:11:33;;;;;;;13.77;11.68;;;;;;;12.01;100.00;101218.13;4968087;28;20117;-70
2022/06/07 02:13:59;;;;;;;13.50;12.10;;;;;;;11.98;100.00;101212.81;4968373;28;20022;-70
2022/06/07 02:16:25;;;;;;;13.18;11.82;;;;;;;11.99;100.00;101219.78;4967661;28;20038;-70
2022/06/07 02:18:51;;;;;;;11.27;10.10;;;;;;;11.97;100.00;101215.34;4968109;28;20038;-70
2022/06/07 02:21:18;;;;;;;14.27;11.00;;;;;;;11.92;100.00;101210.03;4968174;28;20133;-71
2022/06/07 02:23:43;;;;;;;13.20;10.70;;;;;;;11.93;100.00;101211.78;4970411;28;20035;-70
2022/06/07 02:26:17;;;;;;;11.75;10.07;;;;;;;11.89;100.00;101204.75;4950742;28;20021;-70
2022/06/07 02:28:46;;;;;;;11.15;10.25;;;;;;;11.92;100.00;101211.72;4967289;28;20365;-69
2022/06/07 02:31:11;;;;;;;10.70;9.70;;;;;;;11.87;100.00;101202.06;4968010;28;20096;-69
2022/06/07 02:33:39;;;;;;;10.82;9.38;;;;;;;11.88;100.00;101205.56;4967973;28;20015;-69
2022/06/07 02:36:06;;;;;;;12.20;9.35;;;;;;;11.87;100.00;101199.47;4968235;28;20418;-69
2022/06/07 02:38:33;;;;;;;10.10;9.05;;;;;;;11.86;100.00;101202.91;4967518;28;20027;-69
2022/06/07 02:40:58;;;;;;;10.20;8.73;;;;;;;11.82;100.00;101200.19;4967770;28;20022;-69
2022/06/07 02:43:24;;;;;;;10.25;8.82;;;;;;;11.83;100.00;101205.41;4968236;28;20049;-70
2022/06/07 02:45:49;;;;;;;9.18;8.15;;;;;;;11.85;100.00;101195.06;4967554;28;20162;-70
2022/06/07 02:48:14;;;;;;;10.30;7.88;;;;;;;11.85;100.00;101195.06;4967899;28;20015;-70
2022/06/07 02:50:40;;;;;;;11.85;8.10;;;;;;;11.84;100.00;101188.09;4967519;28;20030;-70
2022/06/07 02:53:06;;;;;;;9.63;8.32;;;;;;;11.83;100.00;101188.94;4967637;28;20091;-69
2022/06/07 02:55:31;;;;;;;10.57;7.78;;;;;;;11.83;100.00;101192.44;4966972;28;20661;-69
2022/06/07 02:57:58;;;;;;;7.57;6.78;;;;;;;11.84;100.00;101196.78;4967185;28;20121;-70
2022/06/07 03:00:23;;;;;;;11.00;7.65;;;;;;;11.85;100.00;101195.06;4967546;28;20014;-70
2022/06/07 03:02:48;;;;;;;8.43;7.15;;;;;;;11.86;100.00;101191.63;4965345;28;20468;-70
2022/06/07 03:05:14;;;;;;;7.15;6.45;;;;;;;11.86;100.00;101186.44;4967364;28;20022;-72
2022/06/07 03:07:41;;;;;;;10.43;7.75;;;;;;;11.85;100.00;101190.78;4967632;28;20057;-69
2022/06/07 03:10:08;;;;;;;9.05;6.85;;;;;;;11.79;100.00;101180.19;4967218;28;20031;-70
2022/06/07 03:12:34;;;;;;;7.10;6.40;;;;;;;11.82;100.00;101200.19;4967518;28;20058;-70
2022/06/07 03:14:59;;;;;;;7.47;6.00;;;;;;;11.81;100.00;101195.81;4967138;28;20023;-71
2022/06/07 03:17:25;;;;;;;7.45;6.68;;;;;;;11.84;100.00;101203.69;4966943;28;20565;-69
2022/06/07 03:19:51;;;;;;;9.32;6.60;;;;;;;11.83;100.00;101202.81;4965559;28;20125;-70
2022/06/07 03:22:18;;;;;;;7.22;6.63;;;;;;;11.79;100.00;101206.13;4964789;28;20035;-70
2022/06/07 03:24:43;;;;;;;7.72;6.65;;;;;;;11.74;100.00;101208.59;4969007;28;20050;-70
2022/06/07 03:27:09;;;;;;;8.90;6.90;;;;;;;11.75;100.00;101205.16;4966195;28;20101;-69
2022/06/07 03:29:35;;;;;;;9.27;6.93;;;;;;;11.75;100.00;101218.13;4964984;28;20033;-68
2022/06/07 03:32:00;;;;;;;6.65;5.70;;;;;;;11.74;100.00;101218.97;4965390;28;20022;-69
2022/06/07 03:34:25;;;;;;;8.45;6.57;;;;;;;11.73;100.00;101211.13;4964875;28;20446;-69
2022/06/07 03:36:51;;;;;;;8.35;5.97;;;;;;;11.71;100.00;101218.00;4965436;28;20073;-72
2022/06/07 03:39:16;;;;;;;8.32;6.10;;;;;;;11.71;100.00;101218.84;4966952;28;20107;-70
2022/06/07 03:41:42;;;;;;;8.88;6.13;;;;;;;11.70;100.00;101217.09;4970811;28;20105;-70
2022/06/07 03:44:07;;;;;;;9.90;6.47;;;;;;;11.68;100.00;101213.56;4970503;28;20134;-69
2022/06/07 03:46:33;;;;;;;7.90;5.78;;;;;;;11.70;100.00;101221.41;4971386;28;20089;-70
2022/06/07 03:49:00;;;;;;;7.38;6.05;;;;;;;11.69;100.00;101220.53;4970854;28;20884;-70
2022/06/07 03:51:28;;;;;;;7.82;5.90;;;;;;;11.72;100.00;101228.44;4971528;28;20026;-71
2022/06/07 03:53:54;;;;;;;6.88;5.47;;;;;;;11.74;100.00;101228.47;4970622;28;20037;-70
2022/06/07 03:56:21;;;;;;;10.35;5.97;;;;;;;11.73;100.00;101232.78;4970645;28;20033;-72
2022/06/07 03:58:47;;;;;;;10.30;5.93;;;;;;;11.76;100.00;101232.88;4971150;28;20023;-70
2022/06/07 04:01:16;;;;;;;7.63;6.22;;;;;;;11.76;100.00;101227.69;4968760;28;20066;-69
2022/06/07 04:03:42;;;;;;;8.05;5.75;;;;;;;11.74;100.00;101226.78;4968301;28;20448;-70
2022/06/07 04:06:32;;;;;;;7.88;6.53;;;;;;;11.73;100.00;101235.38;4970045;28;20025;-69
2022/06/07 04:08:57;;;;;;;6.43;5.80;;;;;;;11.75;100.00;101230.22;4969943;28;20025;-69
2022/06/07 04:11:24;;;;;;;8.65;6.35;;;;;;;11.77;100.00;101239.84;4970222;28;20022;-70
2022/06/07 04:13:52;;;;;;;7.05;6.35;;;;;;;11.76;100.00;101232.88;4970348;28;20027;-70
2022/06/07 04:16:21;;;;;;;8.68;6.47;;;;;;;11.75;100.00;101231.13;4969805;28;20019;-70
2022/06/07 04:18:47;;;;;;;7.15;6.13;;;;;;;11.77;100.00;101229.47;4968453;28;20019;-70
2022/06/07 04:21:12;;;;;;;9.25;7.28;;;;;;;11.78;100.00;101232.94;4969636;28;20090;-70
2022/06/07 04:23:38;;;;;;;7.80;6.20;;;;;;;11.81;100.00;101239.94;4972812;28;20022;-70
2022/06/07 04:26:12;;;;;;;7.75;6.22;;;;;;;11.84;100.00;101240.94;4970552;28;20026;-69
2022/06/07 04:28:37;;;;;;;10.05;6.75;;;;;;;11.84;100.00;101235.72;4969483;28;20050;-69
2022/06/07 04:31:13;;;;;;;7.93;6.38;;;;;;;11.84;100.00;101233.13;4970474;28;20142;-70
2022/06/07 04:33:39;;;;;;;8.65;6.50;;;;;;;11.86;100.00;101238.38;4970325;28;20045;-70
2022/06/07 04:36:15;;;;;;;7.20;6.30;;;;;;;11.83;100.00;101233.97;4970885;28;20034;-70
2022/06/07 04:38:41;;;;;;;14.75;7.35;;;;;;;11.86;100.00;101235.78;4970414;28;20035;-72
2022/06/07 04:41:09;;;;;;;7.18;6.00;;;;;;;11.85;100.00;101236.63;4969787;28;20027;-69
2022/06/07 04:43:34;;;;;;;8.75;6.57;;;;;;;11.84;100.00;101237.44;4970890;28;20394;-69
2022/06/07 04:46:05;;;;;;;7.90;7.00;;;;;;;11.85;100.00;101240.13;4970025;28;20039;-69
2022/06/07 04:48:30;;;;;;;8.65;6.70;;;;;;;11.88;100.00;101240.22;4970759;28;20046;-71
2022/06/07 04:51:10;;;;;;;7.28;6.55;;;;;;;11.92;100.00;101242.91;4969823;28;20023;-70
2022/06/07 04:53:36;;;;;;;8.10;6.70;;;;;;;11.96;100.00;101240.44;4969909;28;20089;-69
2022/06/07 04:56:10;;;;;;;8.60;6.40;;;;;;;11.99;100.00;101244.88;4970145;28;20019;-70
2022/06/07 04:58:35;;;;;;;10.07;6.82;;;;;;;12.01;100.00;101235.41;4970560;28;20030;-70
2022/06/07 05:01:01;;;;;;;8.50;7.50;;;;;;;12.05;100.00;101241.59;4985018;28;20019;-69
2022/06/07 05:03:26;;;;;;;7.53;6.78;;;;;;;12.09;100.00;101246.03;4956463;28;20129;-69
2022/06/07 05:05:51;;;;;;;10.45;7.13;;;;;;;12.12;100.00;101247.03;4969375;28;20114;-70
2022/06/07 05:08:17;;;;;;;7.82;7.03;;;;;;;12.19;100.00;101248.16;4969363;28;20455;-70
2022/06/07 05:10:42;;;;;;;9.02;8.10;;;;;;;12.16;100.00;101248.03;4970356;28;20498;-70
2022/06/07 05:13:08;;;;;;;10.60;7.10;;;;;;;12.19;100.00;101247.25;4969814;28;20038;-71
2022/06/07 05:15:33;;;;;;;10.73;6.70;;;;;;;12.24;100.00;101258.66;4969821;28;20061;-70
2022/06/07 05:17:59;;;;;;;13.32;6.95;;;;;;;12.29;100.00;101253.59;4968691;28;20472;-70
2022/06/07 05:20:24;;;;;;;7.88;6.93;;;;;;;12.28;100.00;101257.94;4969049;28;20085;-70
2022/06/07 05:22:49;;;;;;;9.98;7.57;;;;;;;12.25;100.00;101260.44;4969086;28;20062;-68
2022/06/07 05:25:14;;;;;;;9.63;7.45;;;;;;;12.25;100.00;101268.22;4969140;28;20030;-70
2022/06/07 05:27:44;;;;;;;7.30;6.57;;;;;;;12.28;100.00;101267.44;4968642;28;20434;-69
2022/06/07 05:30:13;;;;;;;7.88;6.80;;;;;;;12.30;100.00;101264.09;4968581;28;20058;-70
2022/06/07 05:32:38;;;;;;;8.02;7.22;;;;;;;12.31;100.00;101267.53;4966977;28;20042;-70
2022/06/07 05:35:05;;;;;;;11.35;6.78;;;;;;;12.29;100.00;101258.81;4968520;28;20026;-71
2022/06/07 05:37:32;;;;;;;9.30;7.88;;;;;;;12.29;100.00;101259.69;4965703;28;20034;-68
2022/06/07 05:39:58;;;;;;;9.15;8.18;;;;;;;12.29;100.00;101258.81;4968275;28;20137;-68
2022/06/07 05:42:23;;;;;;;11.98;8.93;;;;;;;12.36;100.00;101260.75;4968117;28;20018;-70
2022/06/07 05:44:49;;;;;;;10.90;8.82;;;;;;;12.43;100.00;101254.94;4968822;28;20030;-70
2022/06/07 05:47:14;;;;;;;11.88;8.82;;;;;;;12.53;100.00;101265.63;4967061;28;20073;-69
2022/06/07 05:49:40;;;;;;;11.52;9.02;;;;;;;12.51;100.00;101264.69;4964882;28;20030;-71
2022/06/07 05:52:07;;;;;;;11.70;9.07;;;;;;;12.55;100.00;101266.56;4965450;28;20031;-70
2022/06/07 05:54:34;;;;;;;13.45;9.25;;;;;;;12.58;100.00;101264.03;4969124;28;20041;-69
2022/06/07 05:57:00;;;;;;;10.50;9.10;;;;;;;12.58;100.00;101264.03;4968956;28;20293;-68
2022/06/07 05:59:26;;;;;;;9.50;8.30;;;;;;;12.61;100.00;101267.59;4969482;28;20078;-71
2022/06/07 06:01:51;;;;;;;11.38;9.38;;;;;;;12.60;100.00;101268.47;4966539;28;20027;-69
2022/06/07 06:04:16;;;;;;;11.52;8.48;;;;;;;12.69;100.00;101269.56;4967747;28;20510;-70
2022/06/07 06:06:42;;;;;;;12.68;9.20;;;;;;;12.73;100.00;101272.31;4954769;28;20031;-70
2022/06/07 06:11:52;;;;;;;12.20;9.60;;;;;;;12.92;100.00;101271.97;4968556;28;20170;-70
2022/06/07 06:14:19;;;;;;;11.32;10.07;;;;;;;13.00;100.00;101273.09;4968226;28;20018;-69
2022/06/07 06:16:44;;;;;;;11.65;10.00;;;;;;;13.09;100.00;101265.56;4968325;28;20447;-70
2022/06/07 06:19:09;;;;;;;12.45;10.75;;;;;;;13.20;100.00;101268.44;4969119;28;20085;-71
2022/06/07 06:21:41;;;;;;;15.73;12.27;;;;;;;13.26;100.00;101264.25;4968476;28;20499;-71
2022/06/07 06:24:09;;;;;;;13.23;10.70;;;;;;;13.37;100.00;101267.13;4967549;28;20105;-69
2022/06/07 06:26:36;;;;;;;12.25;10.65;;;;;;;13.43;100.00;101262.09;4959465;28;20419;-71
2022/06/07 06:29:01;;;;;;;13.18;11.73;;;;;;;13.56;100.00;101271.16;4963109;28;20080;-70
2022/06/07 06:31:26;;;;;;;18.27;11.20;;;;;;;13.66;100.00;101265.34;4968196;28;20031;-70
2022/06/07 06:33:54;;;;;;;14.05;11.00;;;;;;;13.80;100.00;101264.81;4950923;28;20049;-69
2022/06/07 06:36:23;;;;;;;13.50;11.20;;;;;;;13.99;100.00;101267.88;4957482;28;20027;-70
2022/06/07 06:38:48;;;;;;;11.80;10.48;;;;;;;14.23;100.00;101267.59;4959458;28;20102;-69
2022/06/07 06:41:26;;;;;;;12.80;11.57;;;;;;;14.46;100.00;101266.38;4968203;28;20527;-70
2022/06/07 06:43:52;;;;;;;13.27;11.10;;;;;;;14.57;100.00;101262.25;4954435;28;20042;-68
2022/06/07 06:46:21;;;;;;;12.43;11.20;;;;;;;14.59;100.00;101263.19;4958398;28;20488;-70
2022/06/07 06:48:47;;;;;;;12.63;11.32;;;;;;;14.58;100.00;101265.75;4960473;28;20240;-69
2022/06/07 06:51:15;;;;;;;14.20;10.52;;;;;;;14.49;100.00;101264.72;4963490;28;20030;-70
2022/06/07 06:53:42;;;;;;;16.05;11.85;;;;;;;14.40;100.00;101264.50;4966481;28;20171;-70
2022/06/07 06:56:08;;;;;;;13.32;11.73;;;;;;;14.37;100.00;101270.50;4967992;28;20041;-68
2022/06/07 06:58:34;;;;;;;14.27;11.10;;;;;;;14.46;100.00;101266.38;4967110;28;20110;-70
2022/06/07 07:01:07;;;;;;;13.25;11.48;;;;;;;14.55;100.00;101277.03;4967730;28;20266;-70
2022/06/07 07:03:36;;;;;;;13.30;12.05;;;;;;;14.57;100.00;101280.50;4961545;28;20507;-70
2022/06/07 07:06:07;;;;;;;12.82;11.55;;;;;;;14.78;100.00;101281.84;4970690;28;20590;-70
2022/06/07 07:08:35;;;;;;;11.77;10.63;;;;;;;14.97;100.00;101275.31;4966319;28;20093;-70
2022/06/07 07:11:15;;;;;;;13.60;12.35;;;;;;;15.07;100.00;101280.75;4964351;28;20090;-70
2022/06/07 07:13:43;;;;;;;12.20;10.75;;;;;;;15.34;100.00;101280.38;4961637;28;20050;-70
2022/06/07 07:16:11;;;;;;;13.75;12.40;;;;;;;15.22;98.34;101282.75;4964355;28;20087;-69
2022/06/07 07:18:37;;;;;;;13.25;11.85;;;;;;;15.32;98.68;101274.28;4963714;28;20567;-70
2022/06/07 07:21:09;;;;;;;14.13;12.68;;;;;;;15.38;97.80;101275.25;4968926;28;20062;-71
2022/06/07 07:23:35;;;;;;;13.25;11.90;;;;;;;15.38;98.59;101286.53;4968911;28;20515;-70
2022/06/07 07:26:03;;;;;;;13.23;12.02;;;;;;;15.45;96.65;101282.34;4968762;28;20235;-70
2022/06/07 07:28:29;;;;;;;12.80;11.50;;;;;;;15.53;98.69;101280.75;4968957;28;20023;-69
2022/06/07 07:31:01;;;;;;;12.40;11.13;;;;;;;15.70;98.97;101272.34;4968799;28;20034;-70
2022/06/07 07:33:27;;;;;;;14.27;11.73;;;;;;;15.84;98.50;101270.84;4969178;28;20027;-69
2022/06/07 07:35:52;;;;;;;14.02;12.63;;;;;;;16.14;96.84;101275.69;4968337;28;20027;-71
2022/06/07 07:38:19;;;;;;;14.02;12.63;;;;;;;16.36;95.16;101268.16;4968419;28;20015;-70
2022/06/07 07:40:44;;;;;;;12.45;11.15;;;;;;;16.71;93.56;101270.44;4968599;28;20045;-70
2022/06/07 07:43:09;;;;;;;12.85;11.55;;;;;;;17.02;91.02;101270.78;4968892;28;20030;-70
2022/06/07 07:45:36;;;;;;;11.30;10.23;;;;;;;17.07;90.48;101267.38;4965785;28;20584;-70
2022/06/07 07:48:03;;;;;;;13.95;12.55;;;;;;;17.26;91.57;101264.13;4966041;28;20027;-70
2022/06/07 07:50:28;;;;;;;13.82;12.55;;;;;;;17.26;89.54;101269.38;4965648;28;20018;-70
2022/06/07 07:52:54;;;;;;;14.13;12.80;;;;;;;17.16;90.06;101264.91;4957573;28;20111;-70
2022/06/07 07:55:19;;;;;;;16.63;15.07;;;;;;;17.10;92.37;101264.78;4966986;28;20403;-70
2022/06/07 07:57:44;;;;;;;16.95;15.15;;;;;;;16.98;90.28;101263.75;4967453;28;20118;-70
2022/06/07 08:00:10;;;;;;;18.30;16.23;;;;;;;16.94;93.30;101264.59;4952848;28;20066;-70
2022/06/07 08:02:36;;;;;;;16.48;14.88;;;;;;;16.83;93.63;101274.94;4953490;28;20023;-69
2022/06/07 08:05:01;;;;;;;15.00;13.50;;;;;;;16.75;93.33;101266.09;4952845;28;20055;-70
2022/06/07 08:07:27;;;;;;;14.75;13.23;;;;;;;16.72;92.00;101268.66;4954717;28;20051;-69
2022/06/07 08:09:52;;;;;;;16.63;15.00;;;;;;;16.69;92.43;101269.53;4953170;28;20022;-70
2022/06/07 08:12:17;;;;;;;14.48;13.20;;;;;;;16.60;92.42;101266.78;4951614;28;20026;-71
2022/06/07 08:14:43;;;;;;;14.55;13.25;;;;;;;16.74;94.42;101270.47;4963063;28;20392;-71
2022/06/07 08:17:08;;;;;;;13.30;11.90;;;;;;;16.95;93.46;101261.09;4969151;28;20019;-71
2022/06/07 08:19:34;;;;;;;12.35;11.20;;;;;;;17.29;93.18;101263.25;4961393;28;20023;-70
2022/06/07 08:21:59;;;;;;;11.43;10.25;;;;;;;17.66;90.14;101268.00;4955517;28;20107;-71
2022/06/07 08:24:25;;;;;;;12.70;11.50;;;;;;;17.89;87.57;101264.72;4949551;28;20050;-71
2022/06/07 08:26:52;;;;;;;12.10;10.90;;;;;;;17.97;88.03;101260.38;4951992;28;20241;-69
2022/06/07 08:29:19;;;;;;;14.75;13.18;;;;;;;18.15;88.06;101256.19;4954757;28;20043;-70
2022/06/07 08:31:45;;;;;;;13.23;12.02;;;;;;;18.22;85.57;101255.34;4953851;28;20294;-71
2022/06/07 08:39:42;;;;;;;13.32;11.85;;;;;;;17.79;84.79;101268.13;4954232;28;20046;-70
2022/06/07 08:42:07;;;;;;;15.80;14.50;;;;;;;17.66;84.83;101265.41;4953651;28;20023;-70
2022/06/07 08:44:42;;;;;;;18.77;15.45;;;;;;;17.51;84.88;101264.38;4951485;28;20384;-71
2022/06/07 08:47:17;;;;;;;14.90;13.52;;;;;;;17.42;85.47;101260.78;4953996;28;20027;-71
2022/06/07 08:49:42;;;;;;;15.82;14.20;;;;;;;17.36;86.89;101259.00;4950790;28;20463;-70
2022/06/07 08:52:15;;;;;;;16.50;14.80;;;;;;;17.38;87.47;101257.25;4952874;28;20084;-71
2022/06/07 08:54:41;;;;;;;15.10;13.60;;;;;;;17.49;86.03;101259.97;4951397;28;20035;-70
2022/06/07 08:57:37;;;;;;;15.45;14.02;;;;;;;17.54;84.88;101255.66;4950949;28;20031;-70
2022/06/07 09:00:17;;;;;;;13.95;12.80;;;;;;;17.79;85.35;101257.63;4970162;28;20327;-70
2022/06/07 09:02:58;;;;;;;14.35;13.05;;;;;;;18.08;84.36;101254.38;4956597;28;20472;-70
2022/06/07 09:05:25;;;;;;;14.13;12.82;;;;;;;18.30;83.72;101251.91;4969810;28;20031;-70
2022/06/07 09:07:51;;;;;;;12.85;11.45;;;;;;;18.39;82.32;101258.94;4969461;28;20043;-69
2022/06/07 09:13:13;;;;;;;13.77;12.60;;;;;;;18.55;78.28;101244.19;4969782;28;20313;-71
2022/06/07 09:15:39;;;;;;;12.38;11.13;;;;;;;18.89;78.70;101257.44;4969568;28;20026;-70
2022/06/07 09:18:06;;;;;;;8.57;7.78;;;;;;;19.29;76.52;101245.34;4968958;28;20395;-70
2022/06/07 09:20:39;;;;;;;9.90;9.10;;;;;;;19.59;76.33;101246.25;4969310;28;20526;-71
2022/06/07 09:23:15;;;;;;;11.60;10.65;;;;;;;19.63;75.32;101242.75;4966901;28;20117;-70
2022/06/07 09:25:48;;;;;;;13.02;11.82;;;;;;;19.54;74.98;101250.63;4964400;28;20043;-70
2022/06/07 09:28:27;;;;;;;11.63;10.48;;;;;;;19.42;74.23;101249.75;4969444;28;20105;-71
2022/06/07 09:31:13;;;;;;;12.55;11.45;;;;;;;19.27;73.94;101249.72;4966188;28;20038;-70
2022/06/07 09:34:03;;;;;;;13.32;11.85;;;;;;;19.29;75.73;101243.59;4952934;28;20031;-71
2022/06/07 09:36:31;;;;;;;13.13;11.82;;;;;;;19.29;73.70;101242.72;4963479;28;20038;-70
2022/06/07 09:39:00;;;;;;;10.65;9.75;;;;;;;19.36;74.86;101243.59;4968446;28;20030;-70
2022/06/07 09:41:40;;;;;;;11.07;10.10;;;;;;;19.40;74.62;101241.00;4969202;28;20244;-70
2022/06/07 09:44:26;;;;;;;11.82;10.73;;;;;;;19.59;74.03;101238.38;4968944;28;20030;-70
2022/06/07 09:47:02;;;;;;;10.68;9.60;;;;;;;19.72;75.13;101241.88;4954771;28;20035;-70
2022/06/07 09:49:35;;;;;;;11.98;9.80;;;;;;;19.75;76.23;101241.03;4966238;28;20057;-71
2022/06/07 09:52:23;;;;;;;10.40;9.40;;;;;;;19.70;73.38;101245.41;4961119;28;20396;-70
2022/06/07 09:54:54;;;;;;;8.88;7.95;;;;;;;19.72;75.14;101238.38;4950683;28;20042;-72
2022/06/07 09:57:33;;;;;;;8.50;7.75;;;;;;;19.68;73.89;101241.00;4953228;28;20034;-73
2022/06/07 10:00:09;;;;;;;8.15;7.45;;;;;;;19.59;73.00;101243.63;4948323;28;20090;-73
2022/06/07 10:02:48;;;;;;;8.70;7.90;;;;;;;19.37;71.19;101225.25;4951655;28;20551;-73
2022/06/07 10:05:39;;;;;;;9.15;8.35;;;;;;;19.30;74.77;101236.63;4955340;28;20027;-73
2022/06/07 10:08:20;;;;;;;8.40;7.55;;;;;;;19.35;76.83;101229.59;4965223;28;20027;-73
2022/06/07 10:11:08;;;;;;;8.50;6.25;;;;;;;19.35;73.67;101237.50;4952275;28;20042;-72
2022/06/07 10:14:11;;;;;;;9.60;6.10;;;;;;;19.21;73.57;101232.22;4950797;28;20368;-73
2022/06/07 10:17:01;;;;;;;6.47;5.78;;;;;;;19.12;74.15;101229.56;4948296;28;20035;-71
2022/06/07 10:19:35;;;;;;;9.00;7.82;;;;;;;18.92;73.45;101228.59;4946986;28;20412;-73
2022/06/07 10:22:09;;;;;;;9.98;8.75;;;;;;;18.85;76.45;101226.84;4949360;28;20569;-73
2022/06/07 10:24:37;;;;;;;8.27;7.13;;;;;;;18.77;76.01;101225.91;4949368;28;20038;-74
2022/06/07 10:27:22;;;;;;;5.78;4.68;;;;;;;18.64;73.70;101220.59;4950017;28;20457;-71
2022/06/07 10:30:15;;;;;;;5.45;4.60;;;;;;;18.76;75.53;101222.44;4949497;28;20046;-73
2022/06/07 10:32:53;;;;;;;5.20;4.65;;;;;;;19.00;75.63;101220.72;4948932;28;20030;-73
2022/06/07 10:35:46;;;;;;;7.25;4.40;;;;;;;19.17;72.94;101218.19;4953480;28;20031;-73
2022/06/07 10:38:36;;;;;;;6.22;4.22;;;;;;;19.10;69.88;101221.66;4956773;28;20380;-73
2022/06/07 10:41:09;;;;;;;5.70;4.88;;;;;;;18.93;69.52;101222.47;4956467;28;20434;-74
2022/06/07 10:43:53;;;;;;;5.47;4.07;;;;;;;18.89;70.89;101228.56;4968100;28;20053;-74
2022/06/07 10:46:21;;;;;;;7.35;4.20;;;;;;;18.80;70.78;101229.41;4957896;28;20027;-74
2022/06/07 10:49:08;;;;;;;4.28;3.60;;;;;;;18.72;72.72;101221.53;4966437;28;20053;-73
2022/06/07 10:54:43;;;;;;;4.68;4.00;;;;;;;18.68;71.89;101219.75;4967830;28;20041;-75
2022/06/07 10:57:15;;;;;;;4.82;3.65;;;;;;;18.70;74.30;101218.03;4967895;28;20031;-74
2022/06/07 10:59:43;;;;;;;6.22;3.80;;;;;;;18.81;73.41;101219.81;4965660;28;20066;-73
2022/06/07 11:02:24;;;;;;;7.35;4.03;;;;;;;18.88;72.58;101200.59;4958728;28;20027;-74
2022/06/07 11:10:35;;;;;;;4.07;3.07;;;;;;;18.92;72.17;101207.59;4968591;28;20041;-73
2022/06/07 11:13:19;;;;;;;5.13;3.28;;;;;;;19.05;71.93;101203.25;4967956;28;20097;-74
2022/06/07 11:15:51;;;;;;;3.97;2.38;;;;;;;18.98;70.67;101217.22;4963322;28;20035;-73
2022/06/07 11:18:20;;;;;;;4.30;2.30;;;;;;;19.00;70.94;101210.22;4952712;28;20062;-73
2022/06/07 11:21:01;;;;;;;3.03;2.10;;;;;;;18.84;68.48;101209.31;4949484;28;20040;-74
2022/06/07 11:23:35;;;;;;;4.25;2.38;;;;;;;18.98;68.85;101204.09;4964506;28;20053;-72
2022/06/07 11:26:06;;;;;;;2.97;2.00;;;;;;;19.14;69.62;101206.81;4967953;28;20019;-74
2022/06/07 11:28:45;;;;;;;3.53;2.20;;;;;;;19.29;66.12;101206.81;4967538;28;20035;-73
2022/06/07 11:31:41;;;;;;;5.55;2.47;;;;;;;19.32;66.57;101205.94;4968152;28;20101;-73
2022/06/07 11:34:34;;;;;;;4.80;2.08;;;;;;;19.44;67.78;101205.97;4950603;28;20027;-71
2022/06/07 11:37:22;;;;;;;5.15;2.10;;;;;;;19.58;66.94;101198.94;4963661;28;20032;-73
2022/06/07 11:39:54;;;;;;;5.47;2.33;;;;;;;19.72;67.09;101199.84;4967686;28;20640;-74
2022/06/07 11:42:34;;;;;;;3.70;1.70;;;;;;;19.63;66.35;101208.59;4967078;28;20105;-74
2022/06/07 11:45:05;;;;;;;2.75;1.80;;;;;;;19.62;65.07;101204.22;4967828;28;20281;-73
2022/06/07 11:47:53;;;;;;;3.42;1.85;;;;;;;19.71;66.51;101207.72;4958626;28;20019;-73
2022/06/07 11:50:24;;;;;;;6.53;1.73;;;;;;;19.67;67.43;101202.47;4943463;28;20038;-72